sensor_id;sensor_type;location;lat;lon;timestamp;P1;durP1;ratioP1;P2;durP2;ratioP2
4563;SDS011;2294;51.818;8.484;2022-11-15T00:02:13;10.13;;;6.30;;
4563;SDS011;2294;51.818;8.484;2022-11-15T00:04:40;13.77;;;6.10;;
4563;SDS011;2294;51.818;8.484;2022-11-15T00:07:07;9.60;;;7.20;;
4563;SDS011;2294;51.818;8.484;2022-11-15T00:09:34;8.10;;;6.30;;
4563;SDS011;2294;51.818;8.484;2022-11-15T00:12:01;10.87;;;6.83;;
4563;SDS011;2294;51.818;8.484;2022-11-15T00:14:27;9.80;;;6.87;;
4563;SDS011;2294;51.818;8.484;2022-11-15T00:16:54;8.40;;;6.77;;
4563;SDS011;2294;51.818;8.484;2022-11-15T00:19:22;11.37;;;6.80;;
4563;SDS011;2294;51.818;8.484;2022-11-15T00:21:49;11.27;;;7.30;;
4563;SDS011;2294;51.818;8.484;2022-11-15T00:24:16;9.77;;;6.60;;
4563;SDS011;2294;51.818;8.484;2022-11-15T00:26:43;6.60;;;5.80;;
4563;SDS011;2294;51.818;8.484;2022-11-15T00:29:10;10.60;;;6.60;;
4563;SDS011;2294;51.818;8.484;2022-11-15T00:31:37;8.83;;;6.70;;
4563;SDS011;2294;51.818;8.484;2022-11-15T00:34:04;8.40;;;6.40;;
4563;SDS011;2294;51.818;8.484;2022-11-15T00:36:33;11.03;;;6.60;;
4563;SDS011;2294;51.818;8.484;2022-11-15T00:39:00;8.50;;;5.90;;
4563;SDS011;2294;51.818;8.484;2022-11-15T00:41:29;9.63;;;6.50;;
4563;SDS011;2294;51.818;8.484;2022-11-15T00:43:56;10.33;;;6.20;;
4563;SDS011;2294;51.818;8.484;2022-11-15T00:46:23;9.80;;;6.90;;
4563;SDS011;2294;51.818;8.484;2022-11-15T00:48:50;11.27;;;6.87;;
4563;SDS011;2294;51.818;8.484;2022-11-15T00:51:16;14.97;;;7.00;;
4563;SDS011;2294;51.818;8.484;2022-11-15T00:53:45;7.40;;;6.10;;
4563;SDS011;2294;51.818;8.484;2022-11-15T00:56:11;8.30;;;6.13;;
4563;SDS011;2294;51.818;8.484;2022-11-15T00:58:38;7.90;;;6.53;;
4563;SDS011;2294;51.818;8.484;2022-11-15T01:01:06;8.43;;;6.00;;
4563;SDS011;2294;51.818;8.484;2022-11-15T01:03:34;8.50;;;6.20;;
4563;SDS011;2294;51.818;8.484;2022-11-15T01:06:00;9.57;;;5.70;;
4563;SDS011;2294;51.818;8.484;2022-11-15T01:08:28;8.97;;;6.40;;
4563;SDS011;2294;51.818;8.484;2022-11-15T01:11:01;9.83;;;6.47;;
4563;SDS011;2294;51.818;8.484;2022-11-15T01:13:29;10.03;;;7.20;;
4563;SDS011;2294;51.818;8.484;2022-11-15T01:15:57;9.90;;;7.67;;
4563;SDS011;2294;51.818;8.484;2022-11-15T01:18:24;8.67;;;6.90;;
4563;SDS011;2294;51.818;8.484;2022-11-15T01:20:51;12.43;;;7.50;;
4563;SDS011;2294;51.818;8.484;2022-11-15T01:23:18;18.03;;;8.17;;
4563;SDS011;2294;51.818;8.484;2022-11-15T01:25:45;9.03;;;6.30;;
4563;SDS011;2294;51.818;8.484;2022-11-15T01:28:13;10.93;;;7.53;;
4563;SDS011;2294;51.818;8.484;2022-11-15T01:30:40;13.17;;;7.30;;
4563;SDS011;2294;51.818;8.484;2022-11-15T01:33:06;8.63;;;6.47;;
4563;SDS011;2294;51.818;8.484;2022-11-15T01:35:33;12.30;;;8.60;;
4563;SDS011;2294;51.818;8.484;2022-11-15T01:38:04;15.37;;;8.50;;
4563;SDS011;2294;51.818;8.484;2022-11-15T01:40:31;13.87;;;7.90;;
4563;SDS011;2294;51.818;8.484;2022-11-15T01:42:58;14.03;;;7.23;;
4563;SDS011;2294;51.818;8.484;2022-11-15T01:45:26;13.33;;;7.53;;
4563;SDS011;2294;51.818;8.484;2022-11-15T01:47:53;10.13;;;7.40;;
4563;SDS011;2294;51.818;8.484;2022-11-15T01:50:22;12.20;;;7.50;;
4563;SDS011;2294;51.818;8.484;2022-11-15T01:52:54;13.60;;;7.20;;
4563;SDS011;2294;51.818;8.484;2022-11-15T01:55:23;11.67;;;6.77;;
4563;SDS011;2294;51.818;8.484;2022-11-15T01:57:53;11.40;;;7.73;;
4563;SDS011;2294;51.818;8.484;2022-11-15T02:00:23;14.80;;;7.37;;
4563;SDS011;2294;51.818;8.484;2022-11-15T02:02:51;10.20;;;7.03;;
4563;SDS011;2294;51.818;8.484;2022-11-15T02:05:18;12.93;;;7.73;;
4563;SDS011;2294;51.818;8.484;2022-11-15T02:07:45;15.03;;;8.10;;
4563;SDS011;2294;51.818;8.484;2022-11-15T02:10:14;10.03;;;7.10;;
4563;SDS011;2294;51.818;8.484;2022-11-15T02:12:44;12.87;;;6.93;;
4563;SDS011;2294;51.818;8.484;2022-11-15T02:15:12;11.90;;;7.10;;
4563;SDS011;2294;51.818;8.484;2022-11-15T02:17:56;14.53;;;8.47;;
4563;SDS011;2294;51.818;8.484;2022-11-15T02:20:37;12.73;;;7.77;;
4563;SDS011;2294;51.818;8.484;2022-11-15T02:26:11;10.90;;;7.67;;
4563;SDS011;2294;51.818;8.484;2022-11-15T02:29:04;15.83;;;8.10;;
4563;SDS011;2294;51.818;8.484;2022-11-15T02:31:38;14.00;;;9.97;;
4563;SDS011;2294;51.818;8.484;2022-11-15T02:34:16;14.83;;;8.73;;
4563;SDS011;2294;51.818;8.484;2022-11-15T02:36:53;15.20;;;8.30;;
4563;SDS011;2294;51.818;8.484;2022-11-15T02:39:28;14.17;;;8.40;;
4563;SDS011;2294;51.818;8.484;2022-11-15T02:42:02;14.80;;;8.50;;
4563;SDS011;2294;51.818;8.484;2022-11-15T02:44:50;14.73;;;9.00;;
4563;SDS011;2294;51.818;8.484;2022-11-15T02:47:20;15.43;;;9.90;;
4563;SDS011;2294;51.818;8.484;2022-11-15T02:49:50;11.40;;;8.20;;
4563;SDS011;2294;51.818;8.484;2022-11-15T02:52:20;13.93;;;9.30;;
4563;SDS011;2294;51.818;8.484;2022-11-15T02:54:53;12.23;;;9.33;;
4563;SDS011;2294;51.818;8.484;2022-11-15T02:57:24;14.53;;;9.07;;
4563;SDS011;2294;51.818;8.484;2022-11-15T03:00:05;16.53;;;9.43;;
4563;SDS011;2294;51.818;8.484;2022-11-15T03:02:41;17.33;;;11.07;;
4563;SDS011;2294;51.818;8.484;2022-11-15T03:05:22;15.10;;;10.43;;
4563;SDS011;2294;51.818;8.484;2022-11-15T03:07:58;19.27;;;11.00;;
4563;SDS011;2294;51.818;8.484;2022-11-15T03:10:32;19.60;;;10.70;;
4563;SDS011;2294;51.818;8.484;2022-11-15T03:13:11;20.47;;;11.83;;
4563;SDS011;2294;51.818;8.484;2022-11-15T03:15:47;18.27;;;11.80;;
4563;SDS011;2294;51.818;8.484;2022-11-15T03:18:21;15.93;;;10.90;;
4563;SDS011;2294;51.818;8.484;2022-11-15T03:20:53;20.00;;;11.00;;
4563;SDS011;2294;51.818;8.484;2022-11-15T03:23:21;21.83;;;12.33;;
4563;SDS011;2294;51.818;8.484;2022-11-15T03:25:50;21.07;;;11.60;;
4563;SDS011;2294;51.818;8.484;2022-11-15T03:28:18;16.23;;;10.43;;
4563;SDS011;2294;51.818;8.484;2022-11-15T03:30:48;20.67;;;10.80;;
4563;SDS011;2294;51.818;8.484;2022-11-15T03:33:18;17.23;;;10.70;;
4563;SDS011;2294;51.818;8.484;2022-11-15T03:35:47;24.17;;;12.00;;
4563;SDS011;2294;51.818;8.484;2022-11-15T03:38:17;23.87;;;12.33;;
4563;SDS011;2294;51.818;8.484;2022-11-15T03:40:49;18.03;;;11.80;;
4563;SDS011;2294;51.818;8.484;2022-11-15T03:43:22;24.73;;;13.50;;
4563;SDS011;2294;51.818;8.484;2022-11-15T03:45:56;21.10;;;13.03;;
4563;SDS011;2294;51.818;8.484;2022-11-15T03:48:29;19.37;;;13.00;;
4563;SDS011;2294;51.818;8.484;2022-11-15T03:51:01;24.23;;;13.23;;
4563;SDS011;2294;51.818;8.484;2022-11-15T03:53:29;18.77;;;12.27;;
4563;SDS011;2294;51.818;8.484;2022-11-15T03:55:56;21.20;;;12.47;;
4563;SDS011;2294;51.818;8.484;2022-11-15T03:58:23;18.30;;;12.80;;
4563;SDS011;2294;51.818;8.484;2022-11-15T04:00:50;22.70;;;13.10;;
4563;SDS011;2294;51.818;8.484;2022-11-15T04:03:17;20.73;;;13.93;;
4563;SDS011;2294;51.818;8.484;2022-11-15T04:05:45;31.23;;;15.27;;
4563;SDS011;2294;51.818;8.484;2022-11-15T04:08:12;18.87;;;12.47;;
4563;SDS011;2294;51.818;8.484;2022-11-15T04:10:39;22.17;;;14.30;;
4563;SDS011;2294;51.818;8.484;2022-11-15T04:13:06;24.80;;;13.57;;
4563;SDS011;2294;51.818;8.484;2022-11-15T04:15:33;22.17;;;12.87;;
4563;SDS011;2294;51.818;8.484;2022-11-15T04:18:00;26.33;;;14.40;;
4563;SDS011;2294;51.818;8.484;2022-11-15T04:20:28;27.30;;;14.70;;
4563;SDS011;2294;51.818;8.484;2022-11-15T04:23:16;18.30;;;13.17;;
4563;SDS011;2294;51.818;8.484;2022-11-15T04:26:02;20.80;;;13.60;;
4563;SDS011;2294;51.818;8.484;2022-11-15T04:28:31;23.10;;;13.00;;
4563;SDS011;2294;51.818;8.484;2022-11-15T04:30:58;18.40;;;12.27;;
4563;SDS011;2294;51.818;8.484;2022-11-15T04:33:25;20.50;;;13.93;;
4563;SDS011;2294;51.818;8.484;2022-11-15T04:35:51;21.53;;;13.53;;
4563;SDS011;2294;51.818;8.484;2022-11-15T04:38:37;17.43;;;12.00;;
4563;SDS011;2294;51.818;8.484;2022-11-15T04:41:04;17.50;;;12.53;;
4563;SDS011;2294;51.818;8.484;2022-11-15T04:43:31;26.60;;;13.73;;
4563;SDS011;2294;51.818;8.484;2022-11-15T04:45:58;20.43;;;12.70;;
4563;SDS011;2294;51.818;8.484;2022-11-15T04:48:25;23.20;;;13.03;;
4563;SDS011;2294;51.818;8.484;2022-11-15T04:50:51;23.80;;;13.93;;
4563;SDS011;2294;51.818;8.484;2022-11-15T04:53:18;18.10;;;12.00;;
4563;SDS011;2294;51.818;8.484;2022-11-15T04:55:47;24.30;;;12.47;;
4563;SDS011;2294;51.818;8.484;2022-11-15T04:58:13;21.90;;;13.50;;
4563;SDS011;2294;51.818;8.484;2022-11-15T05:00:40;21.20;;;12.77;;
4563;SDS011;2294;51.818;8.484;2022-11-15T05:03:08;21.13;;;12.23;;
4563;SDS011;2294;51.818;8.484;2022-11-15T05:05:53;18.80;;;12.50;;
4563;SDS011;2294;51.818;8.484;2022-11-15T05:08:19;20.63;;;13.23;;
4563;SDS011;2294;51.818;8.484;2022-11-15T05:10:48;17.00;;;11.53;;
4563;SDS011;2294;51.818;8.484;2022-11-15T05:13:15;23.20;;;13.53;;
4563;SDS011;2294;51.818;8.484;2022-11-15T05:15:42;20.23;;;13.37;;
4563;SDS011;2294;51.818;8.484;2022-11-15T05:18:09;30.87;;;12.77;;
4563;SDS011;2294;51.818;8.484;2022-11-15T05:20:37;18.40;;;12.50;;
4563;SDS011;2294;51.818;8.484;2022-11-15T05:23:04;15.43;;;11.30;;
4563;SDS011;2294;51.818;8.484;2022-11-15T05:25:31;16.20;;;11.07;;
4563;SDS011;2294;51.818;8.484;2022-11-15T05:27:59;15.67;;;11.37;;
4563;SDS011;2294;51.818;8.484;2022-11-15T05:30:26;15.73;;;10.50;;
4563;SDS011;2294;51.818;8.484;2022-11-15T05:32:53;20.70;;;12.80;;
4563;SDS011;2294;51.818;8.484;2022-11-15T05:35:21;17.47;;;11.57;;
4563;SDS011;2294;51.818;8.484;2022-11-15T05:37:55;19.30;;;12.80;;
4563;SDS011;2294;51.818;8.484;2022-11-15T05:40:23;18.00;;;11.03;;
4563;SDS011;2294;51.818;8.484;2022-11-15T05:42:50;15.47;;;11.37;;
4563;SDS011;2294;51.818;8.484;2022-11-15T05:45:18;18.20;;;11.10;;
4563;SDS011;2294;51.818;8.484;2022-11-15T05:47:46;15.23;;;10.37;;
4563;SDS011;2294;51.818;8.484;2022-11-15T05:50:14;19.80;;;11.17;;
4563;SDS011;2294;51.818;8.484;2022-11-15T05:52:43;21.13;;;11.77;;
4563;SDS011;2294;51.818;8.484;2022-11-15T05:55:12;16.20;;;11.63;;
4563;SDS011;2294;51.818;8.484;2022-11-15T05:57:39;17.47;;;11.60;;
4563;SDS011;2294;51.818;8.484;2022-11-15T06:00:07;15.83;;;11.43;;
4563;SDS011;2294;51.818;8.484;2022-11-15T06:02:36;17.93;;;10.50;;
4563;SDS011;2294;51.818;8.484;2022-11-15T06:05:03;20.03;;;11.03;;
4563;SDS011;2294;51.818;8.484;2022-11-15T06:07:30;17.67;;;10.80;;
4563;SDS011;2294;51.818;8.484;2022-11-15T06:09:57;15.67;;;12.07;;
4563;SDS011;2294;51.818;8.484;2022-11-15T06:12:24;15.20;;;10.13;;
4563;SDS011;2294;51.818;8.484;2022-11-15T06:14:51;15.67;;;9.80;;
4563;SDS011;2294;51.818;8.484;2022-11-15T06:17:18;16.40;;;10.40;;
4563;SDS011;2294;51.818;8.484;2022-11-15T06:19:46;15.63;;;10.43;;
4563;SDS011;2294;51.818;8.484;2022-11-15T06:22:13;15.03;;;10.10;;
4563;SDS011;2294;51.818;8.484;2022-11-15T06:24:39;13.97;;;9.37;;
4563;SDS011;2294;51.818;8.484;2022-11-15T06:27:06;15.10;;;9.80;;
4563;SDS011;2294;51.818;8.484;2022-11-15T06:29:33;15.10;;;10.57;;
4563;SDS011;2294;51.818;8.484;2022-11-15T06:32:00;18.00;;;9.73;;
4563;SDS011;2294;51.818;8.484;2022-11-15T06:34:27;11.30;;;9.40;;
4563;SDS011;2294;51.818;8.484;2022-11-15T06:36:55;17.80;;;10.67;;
4563;SDS011;2294;51.818;8.484;2022-11-15T06:39:22;15.03;;;10.30;;
4563;SDS011;2294;51.818;8.484;2022-11-15T06:41:49;14.20;;;10.80;;
4563;SDS011;2294;51.818;8.484;2022-11-15T06:44:16;12.60;;;9.70;;
4563;SDS011;2294;51.818;8.484;2022-11-15T06:46:42;13.30;;;9.30;;
4563;SDS011;2294;51.818;8.484;2022-11-15T06:49:09;14.43;;;10.07;;
4563;SDS011;2294;51.818;8.484;2022-11-15T06:51:36;15.43;;;10.37;;
4563;SDS011;2294;51.818;8.484;2022-11-15T06:54:04;14.27;;;10.17;;
4563;SDS011;2294;51.818;8.484;2022-11-15T06:56:31;15.37;;;9.83;;
4563;SDS011;2294;51.818;8.484;2022-11-15T06:59:00;13.20;;;9.43;;
4563;SDS011;2294;51.818;8.484;2022-11-15T07:01:27;18.87;;;10.50;;
4563;SDS011;2294;51.818;8.484;2022-11-15T07:03:53;14.27;;;9.83;;
4563;SDS011;2294;51.818;8.484;2022-11-15T07:06:20;16.20;;;9.17;;
4563;SDS011;2294;51.818;8.484;2022-11-15T07:08:47;15.50;;;10.10;;
4563;SDS011;2294;51.818;8.484;2022-11-15T07:11:15;18.97;;;9.60;;
4563;SDS011;2294;51.818;8.484;2022-11-15T07:13:42;14.50;;;8.97;;
4563;SDS011;2294;51.818;8.484;2022-11-15T07:16:09;11.67;;;8.80;;
4563;SDS011;2294;51.818;8.484;2022-11-15T07:18:37;13.03;;;8.57;;
4563;SDS011;2294;51.818;8.484;2022-11-15T07:21:06;13.10;;;9.40;;
4563;SDS011;2294;51.818;8.484;2022-11-15T07:23:35;14.20;;;8.53;;
4563;SDS011;2294;51.818;8.484;2022-11-15T07:26:03;16.30;;;8.70;;
4563;SDS011;2294;51.818;8.484;2022-11-15T07:28:31;10.93;;;7.83;;
4563;SDS011;2294;51.818;8.484;2022-11-15T07:31:01;15.70;;;8.77;;
4563;SDS011;2294;51.818;8.484;2022-11-15T07:33:29;12.87;;;7.97;;
4563;SDS011;2294;51.818;8.484;2022-11-15T07:35:58;15.07;;;8.13;;
4563;SDS011;2294;51.818;8.484;2022-11-15T07:38:26;11.10;;;7.47;;
4563;SDS011;2294;51.818;8.484;2022-11-15T07:40:55;10.80;;;6.90;;
4563;SDS011;2294;51.818;8.484;2022-11-15T07:43:23;9.20;;;6.60;;
4563;SDS011;2294;51.818;8.484;2022-11-15T07:45:54;8.73;;;6.37;;
4563;SDS011;2294;51.818;8.484;2022-11-15T07:48:20;8.87;;;7.10;;
4563;SDS011;2294;51.818;8.484;2022-11-15T07:50:48;14.07;;;7.40;;
4563;SDS011;2294;51.818;8.484;2022-11-15T07:56:37;11.17;;;7.00;;
4563;SDS011;2294;51.818;8.484;2022-11-15T07:59:04;11.90;;;8.50;;
4563;SDS011;2294;51.818;8.484;2022-11-15T08:01:32;13.43;;;7.47;;
4563;SDS011;2294;51.818;8.484;2022-11-15T08:03:59;10.07;;;7.17;;
4563;SDS011;2294;51.818;8.484;2022-11-15T08:06:26;10.17;;;8.10;;
4563;SDS011;2294;51.818;8.484;2022-11-15T08:08:53;14.93;;;7.47;;
4563;SDS011;2294;51.818;8.484;2022-11-15T08:11:19;9.40;;;7.13;;
4563;SDS011;2294;51.818;8.484;2022-11-15T08:13:46;6.83;;;5.20;;
4563;SDS011;2294;51.818;8.484;2022-11-15T08:16:13;8.83;;;6.10;;
4563;SDS011;2294;51.818;8.484;2022-11-15T08:18:41;7.53;;;5.90;;
4563;SDS011;2294;51.818;8.484;2022-11-15T08:21:08;8.47;;;6.13;;
4563;SDS011;2294;51.818;8.484;2022-11-15T08:23:38;9.20;;;5.50;;
4563;SDS011;2294;51.818;8.484;2022-11-15T08:26:05;6.93;;;5.20;;
4563;SDS011;2294;51.818;8.484;2022-11-15T08:28:31;8.37;;;5.07;;
4563;SDS011;2294;51.818;8.484;2022-11-15T08:30:58;8.97;;;6.27;;
4563;SDS011;2294;51.818;8.484;2022-11-15T08:33:25;9.10;;;6.00;;
4563;SDS011;2294;51.818;8.484;2022-11-15T08:35:55;7.33;;;5.00;;
4563;SDS011;2294;51.818;8.484;2022-11-15T08:38:22;7.97;;;5.23;;
4563;SDS011;2294;51.818;8.484;2022-11-15T08:40:49;6.83;;;5.13;;
4563;SDS011;2294;51.818;8.484;2022-11-15T08:43:17;9.23;;;5.07;;
4563;SDS011;2294;51.818;8.484;2022-11-15T08:45:44;7.93;;;4.97;;
4563;SDS011;2294;51.818;8.484;2022-11-15T08:48:11;8.30;;;5.27;;
4563;SDS011;2294;51.818;8.484;2022-11-15T08:50:37;9.30;;;4.57;;
4563;SDS011;2294;51.818;8.484;2022-11-15T08:53:06;6.87;;;4.70;;
4563;SDS011;2294;51.818;8.484;2022-11-15T08:55:35;6.60;;;4.10;;
4563;SDS011;2294;51.818;8.484;2022-11-15T08:58:03;5.13;;;3.83;;
4563;SDS011;2294;51.818;8.484;2022-11-15T09:00:30;5.70;;;3.53;;
4563;SDS011;2294;51.818;8.484;2022-11-15T09:02:57;4.10;;;3.50;;
4563;SDS011;2294;51.818;8.484;2022-11-15T09:05:24;6.73;;;4.20;;
4563;SDS011;2294;51.818;8.484;2022-11-15T09:07:52;4.40;;;3.10;;
4563;SDS011;2294;51.818;8.484;2022-11-15T09:10:21;3.67;;;3.33;;
4563;SDS011;2294;51.818;8.484;2022-11-15T09:12:49;6.57;;;2.90;;
4563;SDS011;2294;51.818;8.484;2022-11-15T09:15:16;5.93;;;3.40;;
4563;SDS011;2294;51.818;8.484;2022-11-15T09:17:44;9.23;;;3.10;;
4563;SDS011;2294;51.818;8.484;2022-11-15T09:20:11;4.73;;;2.80;;
4563;SDS011;2294;51.818;8.484;2022-11-15T09:22:38;3.70;;;2.70;;
4563;SDS011;2294;51.818;8.484;2022-11-15T09:25:05;3.50;;;2.60;;
4563;SDS011;2294;51.818;8.484;2022-11-15T09:27:34;2.13;;;1.93;;
4563;SDS011;2294;51.818;8.484;2022-11-15T09:30:01;3.60;;;1.77;;
4563;SDS011;2294;51.818;8.484;2022-11-15T09:32:29;3.30;;;1.73;;
4563;SDS011;2294;51.818;8.484;2022-11-15T09:34:56;1.40;;;1.27;;
4563;SDS011;2294;51.818;8.484;2022-11-15T09:37:23;1.43;;;1.20;;
4563;SDS011;2294;51.818;8.484;2022-11-15T09:39:50;2.37;;;1.60;;
4563;SDS011;2294;51.818;8.484;2022-11-15T09:42:25;2.97;;;1.50;;
4563;SDS011;2294;51.818;8.484;2022-11-15T09:45:09;3.87;;;1.60;;
4563;SDS011;2294;51.818;8.484;2022-11-15T09:47:54;2.80;;;1.57;;
4563;SDS011;2294;51.818;8.484;2022-11-15T09:50:31;1.17;;;1.07;;
4563;SDS011;2294;51.818;8.484;2022-11-15T09:53:02;1.30;;;1.10;;
4563;SDS011;2294;51.818;8.484;2022-11-15T09:55:32;4.17;;;1.43;;
4563;SDS011;2294;51.818;8.484;2022-11-15T09:58:07;2.80;;;1.50;;
4563;SDS011;2294;51.818;8.484;2022-11-15T10:00:42;1.90;;;1.30;;
4563;SDS011;2294;51.818;8.484;2022-11-15T10:03:18;1.80;;;1.27;;
4563;SDS011;2294;51.818;8.484;2022-11-15T10:05:52;3.80;;;1.40;;
4563;SDS011;2294;51.818;8.484;2022-11-15T10:11:15;3.73;;;1.37;;
4563;SDS011;2294;51.818;8.484;2022-11-15T10:13:46;2.33;;;1.33;;
4563;SDS011;2294;51.818;8.484;2022-11-15T10:16:26;5.57;;;2.50;;
4563;SDS011;2294;51.818;8.484;2022-11-15T10:19:17;7.40;;;1.50;;
4563;SDS011;2294;51.818;8.484;2022-11-15T10:21:52;2.77;;;1.30;;
4563;SDS011;2294;51.818;8.484;2022-11-15T10:24:30;2.53;;;1.60;;
4563;SDS011;2294;51.818;8.484;2022-11-15T10:27:04;2.60;;;1.57;;
4563;SDS011;2294;51.818;8.484;2022-11-15T10:29:40;3.17;;;1.90;;
4563;SDS011;2294;51.818;8.484;2022-11-15T10:32:10;2.10;;;1.40;;
4563;SDS011;2294;51.818;8.484;2022-11-15T10:34:38;1.33;;;1.23;;
4563;SDS011;2294;51.818;8.484;2022-11-15T10:37:05;2.27;;;1.93;;
4563;SDS011;2294;51.818;8.484;2022-11-15T10:39:32;1.87;;;1.37;;
4563;SDS011;2294;51.818;8.484;2022-11-15T10:42:02;4.63;;;1.57;;
4563;SDS011;2294;51.818;8.484;2022-11-15T10:44:42;1.60;;;1.50;;
4563;SDS011;2294;51.818;8.484;2022-11-15T10:47:24;3.53;;;1.80;;
4563;SDS011;2294;51.818;8.484;2022-11-15T10:49:55;1.80;;;1.70;;
4563;SDS011;2294;51.818;8.484;2022-11-15T10:52:26;4.67;;;1.73;;
4563;SDS011;2294;51.818;8.484;2022-11-15T10:54:55;3.73;;;1.60;;
4563;SDS011;2294;51.818;8.484;2022-11-15T10:57:26;1.90;;;1.70;;
4563;SDS011;2294;51.818;8.484;2022-11-15T10:59:57;1.80;;;1.50;;
4563;SDS011;2294;51.818;8.484;2022-11-15T11:02:29;1.80;;;1.50;;
4563;SDS011;2294;51.818;8.484;2022-11-15T11:04:58;1.60;;;1.50;;
4563;SDS011;2294;51.818;8.484;2022-11-15T11:07:27;2.90;;;1.40;;
4563;SDS011;2294;51.818;8.484;2022-11-15T11:09:58;4.17;;;1.97;;
4563;SDS011;2294;51.818;8.484;2022-11-15T11:12:28;1.30;;;1.20;;
4563;SDS011;2294;51.818;8.484;2022-11-15T11:14:57;2.80;;;1.70;;
4563;SDS011;2294;51.818;8.484;2022-11-15T11:17:34;1.73;;;1.50;;
4563;SDS011;2294;51.818;8.484;2022-11-15T11:20:15;1.57;;;1.47;;
4563;SDS011;2294;51.818;8.484;2022-11-15T11:22:52;1.77;;;1.60;;
4563;SDS011;2294;51.818;8.484;2022-11-15T11:25:30;2.30;;;1.97;;
4563;SDS011;2294;51.818;8.484;2022-11-15T11:28:17;5.47;;;1.90;;
4563;SDS011;2294;51.818;8.484;2022-11-15T11:30:57;4.40;;;1.90;;
4563;SDS011;2294;51.818;8.484;2022-11-15T11:33:33;4.73;;;1.70;;
4563;SDS011;2294;51.818;8.484;2022-11-15T11:36:07;2.23;;;1.43;;
4563;SDS011;2294;51.818;8.484;2022-11-15T11:38:50;1.80;;;1.60;;
4563;SDS011;2294;51.818;8.484;2022-11-15T11:44:16;3.60;;;1.93;;
4563;SDS011;2294;51.818;8.484;2022-11-15T11:46:52;3.63;;;1.53;;
4563;SDS011;2294;51.818;8.484;2022-11-15T11:49:25;1.97;;;1.77;;
4563;SDS011;2294;51.818;8.484;2022-11-15T11:52:00;1.77;;;1.63;;
4563;SDS011;2294;51.818;8.484;2022-11-15T11:54:34;2.23;;;2.00;;
4563;SDS011;2294;51.818;8.484;2022-11-15T11:57:07;2.43;;;1.70;;
4563;SDS011;2294;51.818;8.484;2022-11-15T11:59:42;2.80;;;1.53;;
4563;SDS011;2294;51.818;8.484;2022-11-15T12:02:15;1.90;;;1.47;;
4563;SDS011;2294;51.818;8.484;2022-11-15T12:04:50;1.73;;;1.63;;
4563;SDS011;2294;51.818;8.484;2022-11-15T12:07:20;2.07;;;1.47;;
4563;SDS011;2294;51.818;8.484;2022-11-15T12:09:53;3.33;;;1.50;;
4563;SDS011;2294;51.818;8.484;2022-11-15T12:12:25;2.73;;;1.37;;
4563;SDS011;2294;51.818;8.484;2022-11-15T12:15:00;2.47;;;1.60;;
4563;SDS011;2294;51.818;8.484;2022-11-15T12:17:29;2.70;;;1.80;;
4563;SDS011;2294;51.818;8.484;2022-11-15T12:19:59;1.77;;;1.53;;
4563;SDS011;2294;51.818;8.484;2022-11-15T12:22:31;5.63;;;2.10;;
4563;SDS011;2294;51.818;8.484;2022-11-15T12:25:03;1.40;;;1.30;;
4563;SDS011;2294;51.818;8.484;2022-11-15T12:27:35;1.60;;;1.10;;
4563;SDS011;2294;51.818;8.484;2022-11-15T12:30:08;1.90;;;1.40;;
4563;SDS011;2294;51.818;8.484;2022-11-15T12:32:39;6.50;;;1.40;;
4563;SDS011;2294;51.818;8.484;2022-11-15T12:35:21;4.70;;;1.30;;
4563;SDS011;2294;51.818;8.484;2022-11-15T12:37:52;2.07;;;1.30;;
4563;SDS011;2294;51.818;8.484;2022-11-15T12:40:32;1.20;;;1.10;;
4563;SDS011;2294;51.818;8.484;2022-11-15T12:46:10;1.97;;;1.83;;
4563;SDS011;2294;51.818;8.484;2022-11-15T12:57:49;1.37;;;1.23;;
4563;SDS011;2294;51.818;8.484;2022-11-15T13:03:20;1.57;;;1.07;;
4563;SDS011;2294;51.818;8.484;2022-11-15T13:08:43;1.53;;;1.27;;
4563;SDS011;2294;51.818;8.484;2022-11-15T13:17:22;2.10;;;1.20;;
4563;SDS011;2294;51.818;8.484;2022-11-15T13:19:57;3.13;;;1.03;;
4563;SDS011;2294;51.818;8.484;2022-11-15T13:22:26;1.40;;;1.10;;
4563;SDS011;2294;51.818;8.484;2022-11-15T13:25:15;1.40;;;1.10;;
4563;SDS011;2294;51.818;8.484;2022-11-15T13:27:46;2.60;;;1.03;;
4563;SDS011;2294;51.818;8.484;2022-11-15T13:30:15;2.40;;;1.20;;
4563;SDS011;2294;51.818;8.484;2022-11-15T13:32:46;3.00;;;1.37;;
4563;SDS011;2294;51.818;8.484;2022-11-15T13:35:18;1.47;;;0.97;;
4563;SDS011;2294;51.818;8.484;2022-11-15T13:37:47;8.97;;;1.20;;
4563;SDS011;2294;51.818;8.484;2022-11-15T13:40:24;1.30;;;1.00;;
4563;SDS011;2294;51.818;8.484;2022-11-15T13:42:56;1.27;;;1.17;;
4563;SDS011;2294;51.818;8.484;2022-11-15T13:45:24;1.63;;;1.20;;
4563;SDS011;2294;51.818;8.484;2022-11-15T13:47:53;1.30;;;1.10;;
4563;SDS011;2294;51.818;8.484;2022-11-15T13:50:21;1.10;;;1.00;;
4563;SDS011;2294;51.818;8.484;2022-11-15T13:52:51;1.10;;;1.10;;
4563;SDS011;2294;51.818;8.484;2022-11-15T13:55:20;10.20;;;1.50;;
4563;SDS011;2294;51.818;8.484;2022-11-15T13:57:49;1.63;;;1.30;;
4563;SDS011;2294;51.818;8.484;2022-11-15T14:00:27;2.53;;;1.50;;
4563;SDS011;2294;51.818;8.484;2022-11-15T14:03:06;3.03;;;1.27;;
4563;SDS011;2294;51.818;8.484;2022-11-15T14:05:39;4.13;;;1.50;;
4563;SDS011;2294;51.818;8.484;2022-11-15T14:08:13;1.27;;;1.17;;
4563;SDS011;2294;51.818;8.484;2022-11-15T14:10:48;3.47;;;1.40;;
4563;SDS011;2294;51.818;8.484;2022-11-15T14:13:33;1.83;;;1.13;;
4563;SDS011;2294;51.818;8.484;2022-11-15T14:16:15;1.80;;;1.00;;
4563;SDS011;2294;51.818;8.484;2022-11-15T14:18:44;4.00;;;1.27;;
4563;SDS011;2294;51.818;8.484;2022-11-15T14:21:13;1.20;;;1.10;;
4563;SDS011;2294;51.818;8.484;2022-11-15T14:23:40;1.30;;;1.00;;
4563;SDS011;2294;51.818;8.484;2022-11-15T14:26:11;3.40;;;1.00;;
4563;SDS011;2294;51.818;8.484;2022-11-15T14:28:53;1.37;;;1.03;;
4563;SDS011;2294;51.818;8.484;2022-11-15T14:31:22;3.00;;;1.10;;
4563;SDS011;2294;51.818;8.484;2022-11-15T14:33:49;2.53;;;0.90;;
4563;SDS011;2294;51.818;8.484;2022-11-15T14:36:16;4.30;;;1.30;;
4563;SDS011;2294;51.818;8.484;2022-11-15T14:38:44;2.10;;;1.20;;
4563;SDS011;2294;51.818;8.484;2022-11-15T14:41:17;1.40;;;0.93;;
4563;SDS011;2294;51.818;8.484;2022-11-15T14:43:45;2.00;;;1.00;;
4563;SDS011;2294;51.818;8.484;2022-11-15T14:46:12;2.70;;;1.13;;
4563;SDS011;2294;51.818;8.484;2022-11-15T14:48:41;2.20;;;1.23;;
4563;SDS011;2294;51.818;8.484;2022-11-15T14:51:11;2.67;;;1.23;;
4563;SDS011;2294;51.818;8.484;2022-11-15T14:53:39;2.60;;;1.13;;
4563;SDS011;2294;51.818;8.484;2022-11-15T14:56:06;2.83;;;1.40;;
4563;SDS011;2294;51.818;8.484;2022-11-15T14:58:33;5.70;;;1.40;;
4563;SDS011;2294;51.818;8.484;2022-11-15T15:01:01;2.47;;;1.33;;
4563;SDS011;2294;51.818;8.484;2022-11-15T15:03:28;2.60;;;1.93;;
4563;SDS011;2294;51.818;8.484;2022-11-15T15:05:56;2.90;;;1.50;;
4563;SDS011;2294;51.818;8.484;2022-11-15T15:08:23;1.80;;;1.40;;
4563;SDS011;2294;51.818;8.484;2022-11-15T15:10:50;2.60;;;1.70;;
4563;SDS011;2294;51.818;8.484;2022-11-15T15:13:18;6.40;;;3.17;;
4563;SDS011;2294;51.818;8.484;2022-11-15T15:15:46;10.13;;;5.77;;
4563;SDS011;2294;51.818;8.484;2022-11-15T15:18:14;10.10;;;6.50;;
4563;SDS011;2294;51.818;8.484;2022-11-15T15:20:41;3.97;;;2.67;;
4563;SDS011;2294;51.818;8.484;2022-11-15T15:23:15;3.30;;;1.70;;
4563;SDS011;2294;51.818;8.484;2022-11-15T15:25:43;7.93;;;5.20;;
4563;SDS011;2294;51.818;8.484;2022-11-15T15:28:11;8.57;;;4.23;;
4563;SDS011;2294;51.818;8.484;2022-11-15T15:30:38;2.23;;;2.03;;
4563;SDS011;2294;51.818;8.484;2022-11-15T15:33:05;3.70;;;2.40;;
4563;SDS011;2294;51.818;8.484;2022-11-15T15:35:33;41.33;;;16.93;;
4563;SDS011;2294;51.818;8.484;2022-11-15T15:38:00;15.47;;;6.27;;
4563;SDS011;2294;51.818;8.484;2022-11-15T15:40:29;19.60;;;10.47;;
4563;SDS011;2294;51.818;8.484;2022-11-15T15:42:57;30.73;;;11.80;;
4563;SDS011;2294;51.818;8.484;2022-11-15T15:45:24;9.73;;;4.90;;
4563;SDS011;2294;51.818;8.484;2022-11-15T15:47:52;9.50;;;5.50;;
4563;SDS011;2294;51.818;8.484;2022-11-15T15:50:21;16.33;;;8.23;;
4563;SDS011;2294;51.818;8.484;2022-11-15T15:52:50;33.20;;;21.10;;
4563;SDS011;2294;51.818;8.484;2022-11-15T15:55:18;6.30;;;4.73;;
4563;SDS011;2294;51.818;8.484;2022-11-15T15:57:46;11.70;;;3.33;;
4563;SDS011;2294;51.818;8.484;2022-11-15T16:00:13;9.57;;;2.97;;